Latest Weather Observations for Central Arnhem Plateau

IDD60801

Issued at 8:31 am CST Sunday 18 April 2021 (issued every 10 minutes, with the page automatically refreshed every 10 minutes)

About weather observations | Map of weather stations | Latest weather observations for NT | Other Formats
Station Details ID: 014909 Name: CENTRAL ARNHEM PLATEAU Lat: -13.33 Lon: 133.09 Height: 416.0 m
Data from the previous 72 hours. | See also: Recent months at Central Arnhem Plateau
Date/Time
CST
Temp
°C
App
Temp
°C
Dew
Point
°C
Rel
Hum
%
Delta-T
°C
Wind Press
QNH
hPa
Press
MSL
hPa
Rain since
9am
mm
Dir  Spd
km/h
Gust
km/h
Spd
kts
Gust
kts
18/08:30am 22.8 17.5 6.6 35 8.5 SE 24 37 13 20 1014.6 1011.7 0.0
18/08:00am 21.9 17.7 8.1 41 7.4 SE 20 33 11 18 1014.3 1011.4 0.0
18/07:30am 21.1 17.3 9.0 46 6.5 SE 19 28 10 15 1014.0 1011.1 0.0
18/07:00am 20.5 16.9 9.7 50 5.9 SE 19 26 10 14 1013.7 1010.9 0.0
18/06:30am 20.7 17.1 10.5 52 5.7 SE 20 28 11 15 1013.0 1010.2 0.0
18/06:00am 20.8 18.5 11.7 56 5.2 SE 15 20 8 11 1012.7 1009.9 0.0
18/05:30am 20.0 19.1 12.5 62 4.3 SE 9 13 5 7 1012.8 1010.0 0.0
18/05:00am 20.4 19.5 12.6 61 4.5 SE 9 11 5 6 1012.7 1009.9 0.0
18/04:30am 20.5 20.0 12.7 61 4.5 SSE 7 9 4 5 1012.7 1009.9 0.0
18/04:00am 20.9 20.4 12.6 59 4.8 SE 7 11 4 6 1013.0 1010.2 0.0
18/03:30am 21.3 20.4 12.7 58 5.0 SE 9 11 5 6 1013.0 1010.2 0.0
18/03:00am 21.4 20.2 12.8 58 5.0 SSE 11 15 6 8 1012.9 1010.1 0.0
18/02:30am 21.5 20.2 12.6 57 5.1 SSE 11 13 6 7 1013.1 1010.3 0.0
18/02:00am 22.2 20.9 12.5 54 5.6 SE 11 13 6 7 1013.2 1010.4 0.0
18/01:30am 22.4 21.1 12.4 53 5.8 SE 11 15 6 8 1013.7 1010.9 0.0
18/01:00am 22.2 21.7 12.5 54 5.6 SE 7 11 4 6 1014.1 1011.2 0.0
18/12:30am 22.4 21.3 12.1 52 5.9 ESE 9 13 5 7 1014.2 1011.3 0.0
18/12:00am 23.4 22.0 12.1 49 6.5 SE 11 15 6 8 1014.5 1011.6 0.0
 
Date/Time
CST
Temp
°C
App
Temp
°C
Dew
Point
°C
Rel
Hum
%
Delta-T
°C
Wind Press
QNH
hPa
Press
MSL
hPa
Rain since
9am
mm
Dir  Spd
km/h
Gust
km/h
Spd
kts
Gust
kts
17/11:30pm 23.6 21.9 12.3 49 6.6 ESE 13 15 7 8 1014.7 1011.8 0.0
17/11:00pm 23.9 22.4 11.9 47 6.9 ESE 11 15 6 8 1014.9 1012.1 0.0
17/10:30pm 24.4 23.3 12.0 46 7.2 SE 9 13 5 7 1015.0 1012.2 0.0
17/10:00pm 24.8 23.2 11.7 44 7.6 SE 11 15 6 8 1015.0 1012.2 0.0
17/09:30pm 25.5 23.6 11.7 42 8.0 SE 13 19 7 10 1014.8 1012.0 0.0
17/09:00pm 26.0 23.2 11.4 40 8.4 SE 17 22 9 12 1014.5 1011.6 0.0
17/08:30pm 26.4 24.1 11.7 40 8.6 SE 15 19 8 10 1014.3 1011.4 0.0
17/08:00pm 26.9 24.5 11.4 38 9.0 SE 15 20 8 11 1013.7 1010.9 0.0
17/07:30pm 27.4 25.5 11.8 38 9.1 SE 13 20 7 11 1013.4 1010.6 0.0
17/07:00pm 27.9 25.6 11.9 37 9.4 SE 15 20 8 11 1013.2 1010.4 0.0
17/06:30pm 28.4 26.1 11.9 36 9.7 SE 15 20 8 11 1012.9 1010.1 0.0
17/06:00pm 29.2 25.9 11.7 34 10.3 SE 20 30 11 16 1012.6 1009.8 0.0
17/05:30pm 30.3 27.1 11.8 32 11.0 SE 20 32 11 17 1012.3 1009.4 0.0
17/05:00pm 30.6 26.5 11.5 30 11.3 SE 24 35 13 19 1012.1 1009.2 0.0
17/04:30pm 31.2 27.8 12.5 31 11.3 SE 22 33 12 18 1011.9 1009.0 0.0
17/04:00pm 31.3 28.4 14.0 35 10.6 SSE 22 33 12 18 1011.8 1008.9 0.0
17/03:30pm 31.7 28.9 14.4 35 10.7 SE 22 33 12 18 1011.9 1009.0 0.0
17/03:00pm 30.8 28.3 14.0 36 10.3 SE 20 37 11 20 1012.2 1009.3 0.0
17/02:30pm 31.6 29.1 15.1 36 10.3 ESE 22 35 12 19 1012.2 1009.3 0.0
17/02:00pm 32.2 30.4 16.9 40 9.9 SE 22 33 12 18 1012.5 1009.6 0.0
17/01:30pm 31.3 29.5 16.1 40 9.7 SE 20 32 11 17 1013.1 1010.3 0.0
17/01:00pm 30.6 28.4 17.0 44 8.7 SE 24 33 13 18 1013.6 1010.8 0.0
17/12:30pm 30.4 29.3 17.8 46 8.2 SE 20 33 11 18 1014.2 1011.3 0.0
17/12:00pm 30.6 29.8 18.0 47 8.2 SE 19 30 10 16 1014.7 1011.8 0.0
17/11:30am 30.6 29.2 18.0 47 8.2 ESE 22 32 12 17 1015.1 1012.3 0.0
17/11:00am 30.1 28.3 17.9 48 7.9 ESE 24 35 13 19 1015.5 1012.7 0.0
17/10:30am 29.5 27.2 16.7 46 8.1 SE 24 37 13 20 1015.8 1013.0 0.0
17/10:00am 29.0 28.1 16.9 48 7.7 SE 17 24 9 13 1016.1 1013.3 0.0
17/09:30am 27.7 27.7 18.1 56 6.2 SE 15 20 8 11 1016.0 1013.2 0.0
17/09:00am 27.4 29.1 20.2 65 4.8 E 11 13 6 7 1016.0 1013.2 0.0
17/08:30am 25.9 27.7 19.5 68 4.2 E 9 13 5 7 1015.8 1013.0 0.0
17/08:00am 25.1 27.0 19.7 72 3.5 ESE 9 11 5 6 1015.6 1012.8 0.0
17/07:30am 23.7 25.7 19.2 76 2.9 SE 7 9 4 5 1015.4 1012.6 0.0
17/07:00am 22.8 26.1 19.0 79 2.4 CALM 0 0 0 0 1015.0 1012.2 0.0
17/06:30am 23.2 25.1 18.9 77 2.8 ENE 7 9 4 5 1014.8 1012.0 0.0
17/06:00am 22.9 24.9 18.7 77 2.7 ENE 6 7 3 4 1014.4 1011.5 0.0
17/05:30am 23.2 24.9 18.5 75 3.0 ENE 7 9 4 5 1014.2 1011.3 0.0
17/05:00am 23.4 26.5 18.7 75 3.0 CALM 0 0 0 0 1014.0 1011.1 0.0
17/04:30am 23.4 26.5 18.7 75 3.0 CALM 0 0 0 0 1014.1 1011.2 0.0
17/04:00am 23.1 26.1 18.4 75 3.0 CALM 0 0 0 0 1014.2 1011.3 0.0
17/03:30am 24.0 27.0 18.4 71 3.6 CALM 0 0 0 0 1014.0 1011.1 0.0
17/03:00am 24.6 26.3 18.5 69 3.9 ESE 7 9 4 5 1014.0 1011.1 0.0
17/02:30am 24.5 25.7 18.2 68 4.0 ESE 9 11 5 6 1014.4 1011.5 0.0
17/02:00am 25.1 26.3 18.3 66 4.4 ESE 9 13 5 7 1014.4 1011.5 0.0
17/01:30am 25.2 26.8 18.2 65 4.5 ESE 7 9 4 5 1014.4 1011.5 0.0
17/01:00am 25.2 26.6 17.9 64 4.7 E 7 9 4 5 1014.7 1011.8 0.0
17/12:30am 25.7 27.2 18.1 63 4.9 E 7 9 4 5 1014.8 1012.0 0.0
17/12:00am 25.9 27.4 18.1 62 5.0 ESE 7 9 4 5 1015.1 1012.3 0.0
 
Date/Time
CST
Temp
°C
App
Temp
°C
Dew
Point
°C
Rel
Hum
%
Delta-T
°C
Wind Press
QNH
hPa
Press
MSL
hPa
Rain since
9am
mm
Dir  Spd
km/h
Gust
km/h
Spd
kts
Gust
kts
16/11:30pm 25.7 28.6 18.1 63 4.9 CALM 0 0 0 0 1015.2 1012.4 0.0
16/11:00pm 26.0 28.8 17.9 61 5.2 CALM 0 0 0 0 1015.2 1012.4 0.0
16/10:30pm 25.9 27.5 17.8 61 5.2 E 6 7 3 4 1015.2 1012.4 0.0
16/10:00pm 27.2 28.2 17.7 56 6.1 ESE 9 15 5 8 1015.2 1012.4 0.0
16/09:30pm 27.6 28.1 17.5 54 6.5 SE 11 13 6 7 1015.2 1012.4 0.0
16/09:00pm 27.6 28.7 17.2 53 6.6 ESE 7 11 4 6 1014.7 1011.8 0.0
16/08:30pm 28.2 28.9 17.1 51 7.1 SE 9 13 5 7 1014.5 1011.6 0.0
16/08:00pm 28.7 29.3 16.9 48 7.5 SE 9 15 5 8 1014.1 1011.2 0.0
16/07:30pm 29.2 29.0 16.7 46 8.0 SE 13 17 7 9 1013.6 1010.8 0.0
16/07:00pm 30.0 29.2 16.1 43 8.8 SE 15 17 8 9 1013.3 1010.5 0.0
16/06:30pm 30.6 29.9 15.5 40 9.5 ESE 13 17 7 9 1012.9 1010.1 0.0
16/06:00pm 31.2 29.9 14.8 37 10.2 ESE 15 20 8 11 1012.5 1009.6 0.0
16/05:30pm 31.8 29.5 14.0 34 11.0 E 19 26 10 14 1012.2 1009.3 0.0
16/05:00pm 32.4 29.9 14.1 33 11.3 ESE 20 26 11 14 1012.0 1009.1 0.0
16/04:30pm 32.3 29.8 14.0 33 11.3 ESE 20 32 11 17 1011.8 1008.9 0.0
16/04:00pm 32.7 30.5 14.3 32 11.4 ESE 19 26 10 14 1011.6 1008.7 0.0
16/03:30pm 32.7 31.2 14.3 32 11.4 ESE 15 22 8 12 1011.6 1008.7 0.0
16/03:00pm 32.9 30.0 13.0 30 12.1 ESE 20 26 11 14 1011.6 1008.7 0.0
16/02:30pm 32.9 30.2 13.5 30 11.9 ESE 20 30 11 16 1011.8 1008.9 0.0
16/02:00pm 32.5 29.2 12.7 30 12.0 ESE 22 32 12 17 1012.0 1009.1 0.0
16/01:30pm 32.7 30.0 12.9 30 12.1 ESE 19 28 10 15 1012.5 1009.6 0.0
16/01:00pm 33.0 30.3 13.6 31 11.9 ENE 20 30 11 16 1012.7 1009.9 0.0
16/12:30pm 32.4 29.6 13.1 31 11.8 E 20 28 11 15 1013.3 1010.5 0.0
16/12:00pm 32.4 28.8 13.1 31 11.8 E 24 33 13 18 1014.0 1011.1 0.0
16/11:30am 31.6 28.5 13.4 33 11.1 E 22 30 12 16 1014.4 1011.5 0.0
16/11:00am 30.6 27.6 13.8 35 10.3 ESE 22 30 12 16 1014.8 1012.0 0.0
16/10:30am 30.1 27.8 14.6 39 9.6 E 20 30 11 16 1015.2 1012.4 0.0
16/10:00am 29.1 28.6 17.0 48 7.7 E 15 20 8 11 1015.3 1012.5 0.0
16/09:30am 28.9 29.9 19.5 57 6.2 ENE 13 19 7 10 1015.2 1012.4 0.0
16/09:00am 26.9 28.1 19.8 65 4.7 ENE 13 15 7 8 1015.3 1012.5 0.0
16/08:30am 25.7 27.2 19.8 70 3.9 E 11 15 6 8 1015.1 1012.3 0.0
16/08:00am 24.7 26.6 19.8 74 3.2 E 9 13 5 7 1014.8 1012.0 0.0
16/07:30am 23.5 25.4 19.8 80 2.4 ESE 9 11 5 6 1014.6 1011.7 0.0
16/07:00am 22.3 24.1 19.5 84 1.8 ESE 9 9 5 5 1014.3 1011.4 0.0
16/06:30am 22.3 24.5 19.5 84 1.8 ESE 7 9 4 5 1014.1 1011.2 0.0
16/06:00am 22.7 24.9 19.5 82 2.1 ESE 7 9 4 5 1014.0 1011.1 0.0
16/05:30am 23.0 25.2 19.6 81 2.2 ESE 7 9 4 5 1013.9 1011.0 0.0
16/05:00am 23.2 25.5 19.4 79 2.5 ESE 6 7 3 4 1013.7 1010.9 0.0
16/04:30am 23.5 26.9 19.4 78 2.7 CALM 0 0 0 0 1013.5 1010.7 0.0
16/04:00am 23.9 26.2 19.4 76 2.9 E 6 7 3 4 1013.5 1010.7 0.0
16/03:30am 24.6 26.8 19.2 72 3.5 E 6 7 3 4 1013.6 1010.8 0.0
16/03:00am 25.0 27.3 19.4 71 3.7 E 6 7 3 4 1013.9 1011.0 0.0
16/02:30am 25.2 27.4 19.3 70 3.8 E 6 7 3 4 1014.0 1011.1 0.0
16/02:00am 25.1 28.6 19.5 71 3.7 CALM 0 0 0 0 1014.1 1011.2 0.0
16/01:30am 25.3 28.6 19.2 69 4.0 CALM 0 0 0 0 1014.3 1011.4 0.0
16/01:00am 25.2 27.4 19.1 69 4.0 ENE 6 7 3 4 1014.3 1011.4 0.0
16/12:30am 25.9 27.9 19.1 66 4.4 ENE 7 9 4 5 1014.3 1011.4 0.0
16/12:00am 25.9 28.8 19.1 66 4.4 ENE 2 7 1 4 1014.3 1011.4 0.0
 
Date/Time
CST
Temp
°C
App
Temp
°C
Dew
Point
°C
Rel
Hum
%
Delta-T
°C
Wind Press
QNH
hPa
Press
MSL
hPa
Rain since
9am
mm
Dir  Spd
km/h
Gust
km/h
Spd
kts
Gust
kts
15/11:30pm 26.1 29.0 19.0 65 4.6 ENE 2 6 1 3 1014.4 1011.5 0.0
15/11:00pm 26.3 28.4 18.9 63 4.8 ENE 6 9 3 5 1014.3 1011.4 0.0
15/10:30pm 26.5 28.1 19.1 64 4.8 ENE 9 11 5 6 1014.3 1011.4 0.0
15/10:00pm 26.7 28.9 19.1 63 5.0 ENE 6 7 3 4 1014.3 1011.4 0.0
15/09:30pm 26.4 28.5 19.0 63 4.8 ENE 6 7 3 4 1014.2 1011.3 0.0
15/09:00pm 27.0 28.4 18.6 60 5.5 ENE 9 13 5 7 1013.9 1011.0 0.0
15/08:30pm 27.0 29.4 19.6 64 4.9 E 6 7 3 4 1013.3 1010.5 0.0
15/08:00pm 27.2 29.3 19.0 61 5.4 E 6 6 3 3 1012.8 1010.0 0.0
15/07:30pm 28.6 29.6 17.8 52 7.0 ESE 9 11 5 6 1012.3 1009.4 0.0
15/07:00pm 29.0 30.8 18.7 53 6.7 ESE 7 9 4 5 1012.0 1009.1 0.0
15/06:30pm 29.4 31.0 18.2 51 7.3 E 7 9 4 5 1011.7 1008.8 0.0
15/06:00pm 30.3 31.1 17.4 46 8.3 E 9 15 5 8 1011.2 1008.4 0.0
15/05:30pm 30.2 30.8 16.9 44 8.5 ENE 9 13 5 7 1011.1 1008.3 0.0
15/05:00pm 30.2 29.5 17.3 46 8.3 ENE 17 24 9 13 1011.1 1008.3 0.0
15/04:30pm 31.3 32.1 17.2 42 9.1 E 9 13 5 7 1010.8 1008.0 0.0
15/04:00pm 31.5 31.6 16.6 40 9.5 ENE 11 17 6 9 1010.6 1007.8 0.0
15/03:30pm 31.7 31.8 16.4 39 9.8 ENE 11 17 6 9 1010.6 1007.8 0.0
15/03:00pm 31.8 31.9 16.5 39 9.8 ENE 11 19 6 10 1010.7 1007.9 0.0
15/02:30pm 32.2 31.9 16.5 39 10.1 E 13 20 7 11 1010.9 1008.1 0.0
15/02:00pm 32.8 32.7 17.0 38 10.2 NE 13 26 7 14 1011.2 1008.4 0.0
15/01:30pm 32.2 32.8 17.7 42 9.4 ESE 11 17 6 9 1011.8 1008.9 0.0
15/01:00pm 32.0 32.0 17.1 41 9.6 E 13 24 7 13 1012.4 1009.5 0.0
15/12:30pm 31.5 31.6 16.6 40 9.5 E 11 19 6 10 1012.8 1010.0 0.0
15/12:00pm 30.1 30.5 17.2 46 8.3 ESE 11 19 6 10 1013.5 1010.7 0.0
15/11:30am 30.3 30.4 17.4 46 8.3 E 13 19 7 10 1014.1 1011.2 0.0
15/11:00am 29.9 29.6 17.4 47 8.0 ENE 15 20 8 11 1014.5 1011.6 0.0
15/10:30am 30.1 30.3 18.5 49 7.6 E 15 22 8 12 1014.8 1012.0 0.0
15/10:00am 29.2 29.3 18.3 51 7.1 ENE 15 24 8 13 1014.9 1012.1 0.0
15/09:30am 28.6 28.6 19.0 56 6.3 ENE 17 20 9 11 1015.1 1012.3 0.0
15/09:00am 27.2 27.1 18.8 60 5.5 ENE 17 24 9 13 1014.9 1012.1 0.0

Other formats

Comma delimited format used in spreadsheet applications
http://www.bom.gov.au/fwo/IDD60801/IDD60801.94141.axf

JavaScript Object Notation format (JSON) in row-major order
http://www.bom.gov.au/fwo/IDD60801/IDD60801.94141.json

Data quality

Most of these data are generated automatically and are frequently updated. Quality checks on data are not normally performed. It is possible for incorrect values to appear. Refer to information at About Latest Weather Observations and please check the disclaimer before using these data.